sensor_id;sensor_type;location;lat;lon;timestamp;temperature;humidity
49579;DHT22;35483;50.828;3.228;2023-05-16T00:00:04;9.40;99.90
49579;DHT22;35483;50.828;3.228;2023-05-16T00:02:42;9.40;99.90
49579;DHT22;35483;50.828;3.228;2023-05-16T00:05:18;9.30;99.90
49579;DHT22;35483;50.828;3.228;2023-05-16T00:08:00;9.40;99.90
49579;DHT22;35483;50.828;3.228;2023-05-16T00:10:37;9.30;99.90
49579;DHT22;35483;50.828;3.228;2023-05-16T00:13:21;9.30;99.90
49579;DHT22;35483;50.828;3.228;2023-05-16T00:16:02;9.40;99.90
49579;DHT22;35483;50.828;3.228;2023-05-16T00:18:38;9.40;99.90
49579;DHT22;35483;50.828;3.228;2023-05-16T00:21:06;9.40;99.90
49579;DHT22;35483;50.828;3.228;2023-05-16T00:23:35;9.30;99.90
49579;DHT22;35483;50.828;3.228;2023-05-16T00:26:19;9.30;99.90
49579;DHT22;35483;50.828;3.228;2023-05-16T00:28:56;9.30;99.90
49579;DHT22;35483;50.828;3.228;2023-05-16T00:31:34;9.30;99.90
49579;DHT22;35483;50.828;3.228;2023-05-16T00:34:08;9.30;99.90
49579;DHT22;35483;50.828;3.228;2023-05-16T00:36:48;9.30;99.90
49579;DHT22;35483;50.828;3.228;2023-05-16T00:39:29;9.30;99.90
49579;DHT22;35483;50.828;3.228;2023-05-16T00:42:07;9.30;99.90
49579;DHT22;35483;50.828;3.228;2023-05-16T00:44:44;9.30;99.90
49579;DHT22;35483;50.828;3.228;2023-05-16T00:47:16;9.30;99.90
49579;DHT22;35483;50.828;3.228;2023-05-16T00:49:47;9.20;99.90
49579;DHT22;35483;50.828;3.228;2023-05-16T00:52:28;9.20;99.90
49579;DHT22;35483;50.828;3.228;2023-05-16T00:55:27;9.20;99.90
49579;DHT22;35483;50.828;3.228;2023-05-16T00:58:04;9.20;99.90
49579;DHT22;35483;50.828;3.228;2023-05-16T01:00:44;9.20;99.90
49579;DHT22;35483;50.828;3.228;2023-05-16T01:03:18;9.10;99.90
49579;DHT22;35483;50.828;3.228;2023-05-16T01:05:56;9.10;99.90
49579;DHT22;35483;50.828;3.228;2023-05-16T01:08:37;9.10;99.90
49579;DHT22;35483;50.828;3.228;2023-05-16T01:11:21;9.10;99.90
49579;DHT22;35483;50.828;3.228;2023-05-16T01:17:22;9.00;99.90
49579;DHT22;35483;50.828;3.228;2023-05-16T01:23:51;9.10;99.90
49579;DHT22;35483;50.828;3.228;2023-05-16T01:26:48;9.10;99.90
49579;DHT22;35483;50.828;3.228;2023-05-16T01:29:25;9.10;99.90
49579;DHT22;35483;50.828;3.228;2023-05-16T01:32:01;9.00;99.90
49579;DHT22;35483;50.828;3.228;2023-05-16T01:34:52;9.00;99.90
49579;DHT22;35483;50.828;3.228;2023-05-16T01:41:04;8.90;99.90
49579;DHT22;35483;50.828;3.228;2023-05-16T01:44:01;8.80;99.90
49579;DHT22;35483;50.828;3.228;2023-05-16T01:46:40;8.80;99.90
49579;DHT22;35483;50.828;3.228;2023-05-16T01:49:30;8.80;99.90
49579;DHT22;35483;50.828;3.228;2023-05-16T01:52:34;8.70;99.90
49579;DHT22;35483;50.828;3.228;2023-05-16T01:55:15;8.70;99.90
49579;DHT22;35483;50.828;3.228;2023-05-16T01:57:45;8.60;99.90
49579;DHT22;35483;50.828;3.228;2023-05-16T02:00:22;8.60;99.90
49579;DHT22;35483;50.828;3.228;2023-05-16T02:02:59;8.60;99.90
49579;DHT22;35483;50.828;3.228;2023-05-16T02:05:32;8.60;99.90
49579;DHT22;35483;50.828;3.228;2023-05-16T02:08:12;8.60;99.90
49579;DHT22;35483;50.828;3.228;2023-05-16T02:10:47;8.60;99.90
49579;DHT22;35483;50.828;3.228;2023-05-16T02:13:21;8.60;99.90
49579;DHT22;35483;50.828;3.228;2023-05-16T02:15:54;8.60;99.90
49579;DHT22;35483;50.828;3.228;2023-05-16T02:18:35;8.60;99.90
49579;DHT22;35483;50.828;3.228;2023-05-16T02:21:21;8.60;99.90
49579;DHT22;35483;50.828;3.228;2023-05-16T02:23:56;8.60;99.90
49579;DHT22;35483;50.828;3.228;2023-05-16T02:26:26;8.60;99.90
49579;DHT22;35483;50.828;3.228;2023-05-16T02:29:10;8.50;99.90
49579;DHT22;35483;50.828;3.228;2023-05-16T02:31:45;8.60;99.90
49579;DHT22;35483;50.828;3.228;2023-05-16T02:34:24;8.50;99.90
49579;DHT22;35483;50.828;3.228;2023-05-16T02:36:59;8.50;99.90
49579;DHT22;35483;50.828;3.228;2023-05-16T02:39:52;8.40;99.90
49579;DHT22;35483;50.828;3.228;2023-05-16T02:42:22;8.40;99.90
49579;DHT22;35483;50.828;3.228;2023-05-16T02:44:48;8.40;99.90
49579;DHT22;35483;50.828;3.228;2023-05-16T02:47:15;8.40;99.90
49579;DHT22;35483;50.828;3.228;2023-05-16T02:49:40;8.40;99.90
49579;DHT22;35483;50.828;3.228;2023-05-16T02:52:07;8.40;99.90
49579;DHT22;35483;50.828;3.228;2023-05-16T02:54:34;8.40;99.90
49579;DHT22;35483;50.828;3.228;2023-05-16T02:57:00;8.40;99.90
49579;DHT22;35483;50.828;3.228;2023-05-16T02:59:27;8.40;99.90
49579;DHT22;35483;50.828;3.228;2023-05-16T03:01:53;8.40;99.90
49579;DHT22;35483;50.828;3.228;2023-05-16T03:04:19;8.40;99.90
49579;DHT22;35483;50.828;3.228;2023-05-16T03:06:45;8.40;99.90
49579;DHT22;35483;50.828;3.228;2023-05-16T03:09:13;8.40;99.90
49579;DHT22;35483;50.828;3.228;2023-05-16T03:11:40;8.40;99.90
49579;DHT22;35483;50.828;3.228;2023-05-16T03:14:05;8.40;99.90
49579;DHT22;35483;50.828;3.228;2023-05-16T03:16:31;8.30;99.90
49579;DHT22;35483;50.828;3.228;2023-05-16T03:18:57;8.30;99.90
49579;DHT22;35483;50.828;3.228;2023-05-16T03:21:25;8.30;99.90
49579;DHT22;35483;50.828;3.228;2023-05-16T03:23:54;8.30;99.90
49579;DHT22;35483;50.828;3.228;2023-05-16T03:26:19;8.30;99.90
49579;DHT22;35483;50.828;3.228;2023-05-16T03:28:48;8.30;99.90
49579;DHT22;35483;50.828;3.228;2023-05-16T03:31:14;8.30;99.90
49579;DHT22;35483;50.828;3.228;2023-05-16T03:33:41;8.30;99.90
49579;DHT22;35483;50.828;3.228;2023-05-16T03:36:08;8.30;99.90
49579;DHT22;35483;50.828;3.228;2023-05-16T03:38:34;8.20;99.90
49579;DHT22;35483;50.828;3.228;2023-05-16T03:41:00;8.20;99.90
49579;DHT22;35483;50.828;3.228;2023-05-16T03:43:26;8.20;99.90
49579;DHT22;35483;50.828;3.228;2023-05-16T03:45:52;8.20;99.90
49579;DHT22;35483;50.828;3.228;2023-05-16T03:48:18;8.20;99.90
49579;DHT22;35483;50.828;3.228;2023-05-16T03:50:45;8.10;99.90
49579;DHT22;35483;50.828;3.228;2023-05-16T03:53:11;8.10;99.90
49579;DHT22;35483;50.828;3.228;2023-05-16T03:55:37;8.10;99.90
49579;DHT22;35483;50.828;3.228;2023-05-16T03:58:04;8.10;99.90
49579;DHT22;35483;50.828;3.228;2023-05-16T04:00:31;8.20;99.90
49579;DHT22;35483;50.828;3.228;2023-05-16T04:02:59;8.20;99.90
49579;DHT22;35483;50.828;3.228;2023-05-16T04:05:24;8.20;99.90
49579;DHT22;35483;50.828;3.228;2023-05-16T04:07:54;8.20;99.90
49579;DHT22;35483;50.828;3.228;2023-05-16T04:10:19;8.20;99.90
49579;DHT22;35483;50.828;3.228;2023-05-16T04:12:46;8.20;99.90
49579;DHT22;35483;50.828;3.228;2023-05-16T04:15:12;8.30;99.90
49579;DHT22;35483;50.828;3.228;2023-05-16T04:17:37;8.30;99.90
49579;DHT22;35483;50.828;3.228;2023-05-16T04:20:05;8.30;99.90
49579;DHT22;35483;50.828;3.228;2023-05-16T04:22:31;8.30;99.90
49579;DHT22;35483;50.828;3.228;2023-05-16T04:24:57;8.30;99.90
49579;DHT22;35483;50.828;3.228;2023-05-16T04:27:23;8.30;99.90
49579;DHT22;35483;50.828;3.228;2023-05-16T04:29:49;8.40;99.90
49579;DHT22;35483;50.828;3.228;2023-05-16T04:32:15;8.40;99.90
49579;DHT22;35483;50.828;3.228;2023-05-16T04:34:42;8.40;99.90
49579;DHT22;35483;50.828;3.228;2023-05-16T04:37:09;8.40;99.90
49579;DHT22;35483;50.828;3.228;2023-05-16T04:39:38;8.40;99.90
49579;DHT22;35483;50.828;3.228;2023-05-16T04:42:04;8.50;99.90
49579;DHT22;35483;50.828;3.228;2023-05-16T04:44:30;8.50;99.90
49579;DHT22;35483;50.828;3.228;2023-05-16T04:46:58;8.60;99.90
49579;DHT22;35483;50.828;3.228;2023-05-16T04:49:25;8.60;99.90
49579;DHT22;35483;50.828;3.228;2023-05-16T04:51:53;8.70;99.90
49579;DHT22;35483;50.828;3.228;2023-05-16T04:54:19;8.70;99.90
49579;DHT22;35483;50.828;3.228;2023-05-16T04:56:46;8.80;99.90
49579;DHT22;35483;50.828;3.228;2023-05-16T04:59:13;8.80;99.90
49579;DHT22;35483;50.828;3.228;2023-05-16T05:01:39;8.90;99.90
49579;DHT22;35483;50.828;3.228;2023-05-16T05:04:05;9.00;99.90
49579;DHT22;35483;50.828;3.228;2023-05-16T05:06:38;9.00;99.90
49579;DHT22;35483;50.828;3.228;2023-05-16T05:09:06;9.10;99.90
49579;DHT22;35483;50.828;3.228;2023-05-16T05:11:35;9.20;99.90
49579;DHT22;35483;50.828;3.228;2023-05-16T05:14:01;9.30;99.90
49579;DHT22;35483;50.828;3.228;2023-05-16T05:16:31;9.40;99.90
49579;DHT22;35483;50.828;3.228;2023-05-16T05:18:58;9.40;99.90
49579;DHT22;35483;50.828;3.228;2023-05-16T05:21:25;9.50;99.90
49579;DHT22;35483;50.828;3.228;2023-05-16T05:23:53;9.60;99.90
49579;DHT22;35483;50.828;3.228;2023-05-16T05:26:19;9.60;99.90
49579;DHT22;35483;50.828;3.228;2023-05-16T05:28:47;9.70;99.90
49579;DHT22;35483;50.828;3.228;2023-05-16T05:31:13;9.70;99.90
49579;DHT22;35483;50.828;3.228;2023-05-16T05:33:45;9.80;99.90
49579;DHT22;35483;50.828;3.228;2023-05-16T05:36:11;9.90;99.90
49579;DHT22;35483;50.828;3.228;2023-05-16T05:38:40;10.00;99.90
49579;DHT22;35483;50.828;3.228;2023-05-16T05:41:13;10.00;99.80
49579;DHT22;35483;50.828;3.228;2023-05-16T05:43:40;10.20;99.80
49579;DHT22;35483;50.828;3.228;2023-05-16T05:46:07;10.20;99.70
49579;DHT22;35483;50.828;3.228;2023-05-16T05:48:35;10.30;99.50
49579;DHT22;35483;50.828;3.228;2023-05-16T05:51:03;10.70;99.50
49579;DHT22;35483;50.828;3.228;2023-05-16T05:53:29;12.50;97.60
49579;DHT22;35483;50.828;3.228;2023-05-16T05:55:55;14.60;94.50
49579;DHT22;35483;50.828;3.228;2023-05-16T05:58:24;16.20;91.90
49579;DHT22;35483;50.828;3.228;2023-05-16T06:00:50;17.50;90.50
49579;DHT22;35483;50.828;3.228;2023-05-16T06:03:16;18.50;87.50
49579;DHT22;35483;50.828;3.228;2023-05-16T06:05:42;19.30;85.40
49579;DHT22;35483;50.828;3.228;2023-05-16T06:08:08;19.90;83.00
49579;DHT22;35483;50.828;3.228;2023-05-16T06:10:36;19.80;81.90
49579;DHT22;35483;50.828;3.228;2023-05-16T06:13:04;18.00;85.30
49579;DHT22;35483;50.828;3.228;2023-05-16T06:15:29;16.20;90.20
49579;DHT22;35483;50.828;3.228;2023-05-16T06:17:58;15.10;92.30
49579;DHT22;35483;50.828;3.228;2023-05-16T06:20:24;14.10;93.10
49579;DHT22;35483;50.828;3.228;2023-05-16T06:22:57;13.50;94.40
49579;DHT22;35483;50.828;3.228;2023-05-16T06:25:24;13.10;94.90
49579;DHT22;35483;50.828;3.228;2023-05-16T06:27:50;12.70;95.40
49579;DHT22;35483;50.828;3.228;2023-05-16T06:30:16;12.60;95.70
49579;DHT22;35483;50.828;3.228;2023-05-16T06:32:43;12.40;95.80
49579;DHT22;35483;50.828;3.228;2023-05-16T06:35:11;12.30;95.50
49579;DHT22;35483;50.828;3.228;2023-05-16T06:37:40;12.20;96.20
49579;DHT22;35483;50.828;3.228;2023-05-16T06:40:12;12.00;95.90
49579;DHT22;35483;50.828;3.228;2023-05-16T06:42:41;12.00;96.50
49579;DHT22;35483;50.828;3.228;2023-05-16T06:45:13;12.00;96.70
49579;DHT22;35483;50.828;3.228;2023-05-16T06:47:39;12.00;96.60
49579;DHT22;35483;50.828;3.228;2023-05-16T06:50:07;11.90;96.80
49579;DHT22;35483;50.828;3.228;2023-05-16T06:52:35;11.90;96.70
49579;DHT22;35483;50.828;3.228;2023-05-16T06:55:04;12.00;96.60
49579;DHT22;35483;50.828;3.228;2023-05-16T06:57:31;11.90;96.70
49579;DHT22;35483;50.828;3.228;2023-05-16T07:00:00;11.90;96.70
49579;DHT22;35483;50.828;3.228;2023-05-16T07:02:29;12.00;97.00
49579;DHT22;35483;50.828;3.228;2023-05-16T07:04:55;12.00;96.80
49579;DHT22;35483;50.828;3.228;2023-05-16T07:07:21;12.10;97.00
49579;DHT22;35483;50.828;3.228;2023-05-16T07:09:49;12.20;96.80
49579;DHT22;35483;50.828;3.228;2023-05-16T07:12:16;12.20;96.80
49579;DHT22;35483;50.828;3.228;2023-05-16T07:14:42;12.30;97.10
49579;DHT22;35483;50.828;3.228;2023-05-16T07:17:11;12.40;97.00
49579;DHT22;35483;50.828;3.228;2023-05-16T07:19:38;12.50;96.10
49579;DHT22;35483;50.828;3.228;2023-05-16T07:22:05;12.50;96.60
49579;DHT22;35483;50.828;3.228;2023-05-16T07:24:32;12.40;96.70
49579;DHT22;35483;50.828;3.228;2023-05-16T07:26:58;12.40;96.50
49579;DHT22;35483;50.828;3.228;2023-05-16T07:29:27;12.60;96.70
49579;DHT22;35483;50.828;3.228;2023-05-16T07:31:53;12.80;95.00
49579;DHT22;35483;50.828;3.228;2023-05-16T07:34:21;12.90;96.60
49579;DHT22;35483;50.828;3.228;2023-05-16T07:36:47;13.00;95.40
49579;DHT22;35483;50.828;3.228;2023-05-16T07:39:13;13.00;96.20
49579;DHT22;35483;50.828;3.228;2023-05-16T07:41:39;13.10;96.20
49579;DHT22;35483;50.828;3.228;2023-05-16T07:44:07;13.20;96.00
49579;DHT22;35483;50.828;3.228;2023-05-16T07:46:36;13.30;95.80
49579;DHT22;35483;50.828;3.228;2023-05-16T07:49:04;13.50;96.30
49579;DHT22;35483;50.828;3.228;2023-05-16T07:51:30;13.70;94.10
49579;DHT22;35483;50.828;3.228;2023-05-16T07:53:58;13.80;96.40
49579;DHT22;35483;50.828;3.228;2023-05-16T07:56:25;13.90;95.80
49579;DHT22;35483;50.828;3.228;2023-05-16T07:58:52;13.90;94.80
49579;DHT22;35483;50.828;3.228;2023-05-16T08:01:20;13.90;96.20
49579;DHT22;35483;50.828;3.228;2023-05-16T08:03:49;14.00;94.80
49579;DHT22;35483;50.828;3.228;2023-05-16T08:06:18;14.10;95.90
49579;DHT22;35483;50.828;3.228;2023-05-16T08:08:47;13.90;94.60
49579;DHT22;35483;50.828;3.228;2023-05-16T08:11:16;14.10;96.10
49579;DHT22;35483;50.828;3.228;2023-05-16T08:13:43;14.10;95.70
49579;DHT22;35483;50.828;3.228;2023-05-16T08:16:12;14.00;95.70
49579;DHT22;35483;50.828;3.228;2023-05-16T08:18:40;14.00;95.80
49579;DHT22;35483;50.828;3.228;2023-05-16T08:21:10;13.90;96.00
49579;DHT22;35483;50.828;3.228;2023-05-16T08:23:37;13.80;96.00
49579;DHT22;35483;50.828;3.228;2023-05-16T08:26:03;13.80;96.00
49579;DHT22;35483;50.828;3.228;2023-05-16T08:28:32;13.90;96.00
49579;DHT22;35483;50.828;3.228;2023-05-16T08:30:58;13.90;93.20
49579;DHT22;35483;50.828;3.228;2023-05-16T08:33:27;13.90;94.60
49579;DHT22;35483;50.828;3.228;2023-05-16T08:35:52;14.00;96.00
49579;DHT22;35483;50.828;3.228;2023-05-16T08:38:20;13.90;95.70
49579;DHT22;35483;50.828;3.228;2023-05-16T08:40:48;13.90;95.30
49579;DHT22;35483;50.828;3.228;2023-05-16T08:43:17;13.90;95.40
49579;DHT22;35483;50.828;3.228;2023-05-16T08:45:43;13.90;95.00
49579;DHT22;35483;50.828;3.228;2023-05-16T08:48:09;13.90;95.60
49579;DHT22;35483;50.828;3.228;2023-05-16T08:50:39;14.10;95.80
49579;DHT22;35483;50.828;3.228;2023-05-16T08:53:08;14.10;94.30
49579;DHT22;35483;50.828;3.228;2023-05-16T08:55:40;14.10;93.20
49579;DHT22;35483;50.828;3.228;2023-05-16T08:58:06;14.30;94.90
49579;DHT22;35483;50.828;3.228;2023-05-16T09:00:35;14.50;94.80
49579;DHT22;35483;50.828;3.228;2023-05-16T09:03:05;14.60;93.70
49579;DHT22;35483;50.828;3.228;2023-05-16T09:05:32;14.60;94.60
49579;DHT22;35483;50.828;3.228;2023-05-16T09:07:59;14.50;94.90
49579;DHT22;35483;50.828;3.228;2023-05-16T09:10:25;14.50;95.40
49579;DHT22;35483;50.828;3.228;2023-05-16T09:12:53;14.40;94.80
49579;DHT22;35483;50.828;3.228;2023-05-16T09:15:21;14.20;94.60
49579;DHT22;35483;50.828;3.228;2023-05-16T09:17:50;14.20;94.90
49579;DHT22;35483;50.828;3.228;2023-05-16T09:20:20;14.20;95.20
49579;DHT22;35483;50.828;3.228;2023-05-16T09:22:55;14.20;94.70
49579;DHT22;35483;50.828;3.228;2023-05-16T09:25:26;14.30;93.30
49579;DHT22;35483;50.828;3.228;2023-05-16T09:27:59;14.40;94.30
49579;DHT22;35483;50.828;3.228;2023-05-16T09:30:32;14.50;90.90
49579;DHT22;35483;50.828;3.228;2023-05-16T09:33:00;14.60;93.50
49579;DHT22;35483;50.828;3.228;2023-05-16T09:35:26;14.70;95.00
49579;DHT22;35483;50.828;3.228;2023-05-16T09:37:55;14.70;94.70
49579;DHT22;35483;50.828;3.228;2023-05-16T09:40:24;14.80;94.90
49579;DHT22;35483;50.828;3.228;2023-05-16T09:43:02;15.00;94.40
49579;DHT22;35483;50.828;3.228;2023-05-16T09:45:33;15.30;93.60
49579;DHT22;35483;50.828;3.228;2023-05-16T09:48:06;15.40;93.80
49579;DHT22;35483;50.828;3.228;2023-05-16T09:50:36;15.40;92.40
49579;DHT22;35483;50.828;3.228;2023-05-16T09:53:04;15.30;92.50
49579;DHT22;35483;50.828;3.228;2023-05-16T09:55:33;15.20;93.60
49579;DHT22;35483;50.828;3.228;2023-05-16T09:58:02;15.10;94.60
49579;DHT22;35483;50.828;3.228;2023-05-16T10:00:29;15.00;94.20
49579;DHT22;35483;50.828;3.228;2023-05-16T10:02:58;15.00;94.40
49579;DHT22;35483;50.828;3.228;2023-05-16T10:05:26;15.10;92.70
49579;DHT22;35483;50.828;3.228;2023-05-16T10:07:58;15.10;93.00
49579;DHT22;35483;50.828;3.228;2023-05-16T10:10:35;15.20;94.40
49579;DHT22;35483;50.828;3.228;2023-05-16T10:13:04;15.00;90.10
49579;DHT22;35483;50.828;3.228;2023-05-16T10:15:36;15.00;93.90
49579;DHT22;35483;50.828;3.228;2023-05-16T10:18:06;15.10;93.90
49579;DHT22;35483;50.828;3.228;2023-05-16T10:20:40;15.20;93.80
49579;DHT22;35483;50.828;3.228;2023-05-16T10:23:16;15.30;94.30
49579;DHT22;35483;50.828;3.228;2023-05-16T10:25:44;15.30;94.00
49579;DHT22;35483;50.828;3.228;2023-05-16T10:28:15;15.30;93.90
49579;DHT22;35483;50.828;3.228;2023-05-16T10:30:44;15.30;93.70
49579;DHT22;35483;50.828;3.228;2023-05-16T10:33:17;15.30;93.40
49579;DHT22;35483;50.828;3.228;2023-05-16T10:35:45;15.40;92.30
49579;DHT22;35483;50.828;3.228;2023-05-16T10:38:16;15.50;94.50
49579;DHT22;35483;50.828;3.228;2023-05-16T10:40:44;15.60;93.90
49579;DHT22;35483;50.828;3.228;2023-05-16T10:43:22;15.70;93.50
49579;DHT22;35483;50.828;3.228;2023-05-16T10:46:06;15.60;92.60
49579;DHT22;35483;50.828;3.228;2023-05-16T10:48:40;15.50;93.90
49579;DHT22;35483;50.828;3.228;2023-05-16T10:51:33;15.50;93.70
49579;DHT22;35483;50.828;3.228;2023-05-16T10:54:09;15.60;92.70
49579;DHT22;35483;50.828;3.228;2023-05-16T10:56:38;15.70;93.40
49579;DHT22;35483;50.828;3.228;2023-05-16T10:59:04;15.80;93.30
49579;DHT22;35483;50.828;3.228;2023-05-16T11:01:54;15.90;93.80
49579;DHT22;35483;50.828;3.228;2023-05-16T11:04:21;15.90;91.30
49579;DHT22;35483;50.828;3.228;2023-05-16T11:06:51;16.00;87.20
49579;DHT22;35483;50.828;3.228;2023-05-16T11:09:25;15.90;91.50
49579;DHT22;35483;50.828;3.228;2023-05-16T11:25:04;16.10;93.00
49579;DHT22;35483;50.828;3.228;2023-05-16T11:27:32;16.20;88.50
49579;DHT22;35483;50.828;3.228;2023-05-16T11:32:33;16.10;92.40
49579;DHT22;35483;50.828;3.228;2023-05-16T11:35:00;16.10;92.00
49579;DHT22;35483;50.828;3.228;2023-05-16T11:37:27;16.10;93.00
49579;DHT22;35483;50.828;3.228;2023-05-16T11:39:58;16.20;92.60
49579;DHT22;35483;50.828;3.228;2023-05-16T11:42:28;16.20;92.70
49579;DHT22;35483;50.828;3.228;2023-05-16T11:45:23;16.30;92.70
49579;DHT22;35483;50.828;3.228;2023-05-16T11:47:50;16.30;92.00
49579;DHT22;35483;50.828;3.228;2023-05-16T11:50:20;16.30;93.20
49579;DHT22;35483;50.828;3.228;2023-05-16T11:52:53;16.30;93.00
49579;DHT22;35483;50.828;3.228;2023-05-16T11:55:26;16.40;92.40
49579;DHT22;35483;50.828;3.228;2023-05-16T11:57:53;16.30;92.70
49579;DHT22;35483;50.828;3.228;2023-05-16T12:00:21;16.30;91.20
49579;DHT22;35483;50.828;3.228;2023-05-16T12:02:48;16.40;92.60
49579;DHT22;35483;50.828;3.228;2023-05-16T12:05:18;16.50;92.20
49579;DHT22;35483;50.828;3.228;2023-05-16T12:07:46;16.60;92.80
49579;DHT22;35483;50.828;3.228;2023-05-16T12:10:13;16.50;92.70
49579;DHT22;35483;50.828;3.228;2023-05-16T12:12:43;16.50;92.50
49579;DHT22;35483;50.828;3.228;2023-05-16T12:15:11;16.50;92.50
49579;DHT22;35483;50.828;3.228;2023-05-16T12:17:40;16.60;89.60
49579;DHT22;35483;50.828;3.228;2023-05-16T12:20:09;16.50;89.90
49579;DHT22;35483;50.828;3.228;2023-05-16T12:22:41;16.50;92.10
49579;DHT22;35483;50.828;3.228;2023-05-16T12:27:55;16.50;91.00
49579;DHT22;35483;50.828;3.228;2023-05-16T12:30:24;16.40;91.30
49579;DHT22;35483;50.828;3.228;2023-05-16T12:33:02;16.40;90.10
49579;DHT22;35483;50.828;3.228;2023-05-16T12:35:30;16.30;89.00
49579;DHT22;35483;50.828;3.228;2023-05-16T12:37:56;16.40;91.40
49579;DHT22;35483;50.828;3.228;2023-05-16T12:40:22;16.30;91.40
49579;DHT22;35483;50.828;3.228;2023-05-16T12:42:49;16.40;92.30
49579;DHT22;35483;50.828;3.228;2023-05-16T12:45:16;16.50;92.00
49579;DHT22;35483;50.828;3.228;2023-05-16T12:47:43;16.50;91.50
49579;DHT22;35483;50.828;3.228;2023-05-16T12:50:11;16.50;91.60
49579;DHT22;35483;50.828;3.228;2023-05-16T12:52:52;16.50;88.90
49579;DHT22;35483;50.828;3.228;2023-05-16T12:55:20;16.50;84.90
49579;DHT22;35483;50.828;3.228;2023-05-16T12:57:49;16.50;91.10
49579;DHT22;35483;50.828;3.228;2023-05-16T13:00:17;16.50;86.50
49579;DHT22;35483;50.828;3.228;2023-05-16T13:02:44;16.40;91.40
49579;DHT22;35483;50.828;3.228;2023-05-16T13:05:10;16.30;91.20
49579;DHT22;35483;50.828;3.228;2023-05-16T13:07:36;16.40;90.40
49579;DHT22;35483;50.828;3.228;2023-05-16T13:10:04;16.40;90.20
49579;DHT22;35483;50.828;3.228;2023-05-16T13:12:31;16.40;91.40
49579;DHT22;35483;50.828;3.228;2023-05-16T13:14:58;16.40;88.30
49579;DHT22;35483;50.828;3.228;2023-05-16T13:17:25;16.40;90.80
49579;DHT22;35483;50.828;3.228;2023-05-16T13:19:52;16.40;90.60
49579;DHT22;35483;50.828;3.228;2023-05-16T13:22:20;16.40;91.30
49579;DHT22;35483;50.828;3.228;2023-05-16T13:24:46;16.50;87.80
49579;DHT22;35483;50.828;3.228;2023-05-16T13:27:15;16.50;90.80
49579;DHT22;35483;50.828;3.228;2023-05-16T13:29:42;16.50;82.20
49579;DHT22;35483;50.828;3.228;2023-05-16T13:32:08;16.50;91.00
49579;DHT22;35483;50.828;3.228;2023-05-16T13:34:34;16.40;89.20
49579;DHT22;35483;50.828;3.228;2023-05-16T13:37:00;16.40;90.60
49579;DHT22;35483;50.828;3.228;2023-05-16T13:39:26;16.40;90.70
49579;DHT22;35483;50.828;3.228;2023-05-16T13:41:52;16.40;90.20
49579;DHT22;35483;50.828;3.228;2023-05-16T13:44:18;16.50;90.30
49579;DHT22;35483;50.828;3.228;2023-05-16T13:46:44;16.60;90.80
49579;DHT22;35483;50.828;3.228;2023-05-16T13:49:10;16.50;90.70
49579;DHT22;35483;50.828;3.228;2023-05-16T13:51:36;16.50;90.00
49579;DHT22;35483;50.828;3.228;2023-05-16T13:54:02;16.50;90.90
49579;DHT22;35483;50.828;3.228;2023-05-16T13:56:28;16.50;90.40
49579;DHT22;35483;50.828;3.228;2023-05-16T13:58:55;16.40;89.50
49579;DHT22;35483;50.828;3.228;2023-05-16T14:01:21;16.30;90.30
49579;DHT22;35483;50.828;3.228;2023-05-16T14:03:46;16.20;90.00
49579;DHT22;35483;50.828;3.228;2023-05-16T14:06:12;16.40;90.80
49579;DHT22;35483;50.828;3.228;2023-05-16T14:08:38;16.60;90.80
49579;DHT22;35483;50.828;3.228;2023-05-16T14:11:04;16.60;90.80
49579;DHT22;35483;50.828;3.228;2023-05-16T14:13:31;16.70;90.60
49579;DHT22;35483;50.828;3.228;2023-05-16T14:15:58;16.60;90.80
49579;DHT22;35483;50.828;3.228;2023-05-16T14:18:24;16.70;90.00
49579;DHT22;35483;50.828;3.228;2023-05-16T14:20:51;16.60;89.10
49579;DHT22;35483;50.828;3.228;2023-05-16T14:23:18;16.70;91.00
49579;DHT22;35483;50.828;3.228;2023-05-16T14:25:44;16.80;90.70
49579;DHT22;35483;50.828;3.228;2023-05-16T14:28:10;16.70;90.50
49579;DHT22;35483;50.828;3.228;2023-05-16T14:30:36;16.70;90.10
49579;DHT22;35483;50.828;3.228;2023-05-16T14:33:02;16.70;90.80
49579;DHT22;35483;50.828;3.228;2023-05-16T14:35:28;16.90;90.80
49579;DHT22;35483;50.828;3.228;2023-05-16T14:37:55;16.80;90.50
49579;DHT22;35483;50.828;3.228;2023-05-16T14:40:21;16.80;90.30
49579;DHT22;35483;50.828;3.228;2023-05-16T14:42:47;16.90;90.70
49579;DHT22;35483;50.828;3.228;2023-05-16T14:45:13;17.00;90.70
49579;DHT22;35483;50.828;3.228;2023-05-16T14:47:39;16.90;90.10
49579;DHT22;35483;50.828;3.228;2023-05-16T14:50:06;16.90;90.20
49579;DHT22;35483;50.828;3.228;2023-05-16T14:52:32;16.90;90.70
49579;DHT22;35483;50.828;3.228;2023-05-16T14:54:58;16.90;87.90
49579;DHT22;35483;50.828;3.228;2023-05-16T14:57:23;16.80;90.40
49579;DHT22;35483;50.828;3.228;2023-05-16T14:59:50;16.80;90.20
49579;DHT22;35483;50.828;3.228;2023-05-16T15:02:16;16.80;90.30
49579;DHT22;35483;50.828;3.228;2023-05-16T15:04:42;16.90;90.50
49579;DHT22;35483;50.828;3.228;2023-05-16T15:07:08;16.90;90.00
49579;DHT22;35483;50.828;3.228;2023-05-16T15:09:33;16.90;90.50
49579;DHT22;35483;50.828;3.228;2023-05-16T15:12:00;17.00;90.50
49579;DHT22;35483;50.828;3.228;2023-05-16T15:14:26;16.90;89.50
49579;DHT22;35483;50.828;3.228;2023-05-16T15:16:52;16.90;90.10
49579;DHT22;35483;50.828;3.228;2023-05-16T15:19:18;16.90;90.50
49579;DHT22;35483;50.828;3.228;2023-05-16T15:21:44;16.80;90.20
49579;DHT22;35483;50.828;3.228;2023-05-16T15:24:10;16.90;90.70
49579;DHT22;35483;50.828;3.228;2023-05-16T15:26:40;16.90;90.70
49579;DHT22;35483;50.828;3.228;2023-05-16T15:29:06;16.70;89.70
49579;DHT22;35483;50.828;3.228;2023-05-16T15:31:32;16.80;90.40
49579;DHT22;35483;50.828;3.228;2023-05-16T15:33:59;16.60;88.00
49579;DHT22;35483;50.828;3.228;2023-05-16T15:36:25;16.50;89.20
49579;DHT22;35483;50.828;3.228;2023-05-16T15:38:51;16.40;90.00
49579;DHT22;35483;50.828;3.228;2023-05-16T15:41:17;16.40;90.00
49579;DHT22;35483;50.828;3.228;2023-05-16T15:43:43;16.40;88.50
49579;DHT22;35483;50.828;3.228;2023-05-16T15:46:09;16.40;89.40
49579;DHT22;35483;50.828;3.228;2023-05-16T15:48:37;16.40;87.90
49579;DHT22;35483;50.828;3.228;2023-05-16T15:51:08;16.40;87.90
49579;DHT22;35483;50.828;3.228;2023-05-16T15:53:34;16.40;90.10
49579;DHT22;35483;50.828;3.228;2023-05-16T15:56:00;16.40;89.90
49579;DHT22;35483;50.828;3.228;2023-05-16T15:58:26;16.40;88.90
49579;DHT22;35483;50.828;3.228;2023-05-16T16:00:52;16.40;89.40
49579;DHT22;35483;50.828;3.228;2023-05-16T16:03:20;16.30;89.10
49579;DHT22;35483;50.828;3.228;2023-05-16T16:05:47;16.40;89.30
49579;DHT22;35483;50.828;3.228;2023-05-16T16:08:13;16.30;86.30
49579;DHT22;35483;50.828;3.228;2023-05-16T16:10:39;16.30;89.50
49579;DHT22;35483;50.828;3.228;2023-05-16T16:13:05;16.30;90.10
49579;DHT22;35483;50.828;3.228;2023-05-16T16:15:31;16.30;90.00
49579;DHT22;35483;50.828;3.228;2023-05-16T16:17:59;16.40;89.50